Time;durP1;ratioP1;P1;durP2;ratioP2;P2;SDS_P1;SDS_P2;PMS_P1;PMS_P2;Temp;Humidity;BMP_temperature;BMP_pressure;BME280_temperature;BME280_humidity;BME280_pressure;Samples;Min_cycle;Max_cycle;Signal;HPM_P1;HPM_P2
2022/09/20 00:02:03;;;;;;;1.00;1.00;;;;;;;-141.28;100.00;50279.19;5073698;28;20200;-76
2022/09/20 00:04:31;;;;;;;2.43;1.33;;;;;;;-141.28;100.00;50261.50;5074614;28;20204;-75
2022/09/20 00:06:58;;;;;;;1.57;1.23;;;;;;;-141.28;100.00;50285.06;5073778;28;20612;-77
2022/09/20 00:09:25;;;;;;;1.30;1.20;;;;;;;-141.28;100.00;50269.38;5073791;28;20228;-75
2022/09/20 00:11:54;;;;;;;1.50;1.40;;;;;;;-141.28;100.00;50249.75;5073221;28;20539;-76
2022/09/20 00:14:23;;;;;;;1.43;1.33;;;;;;;-141.28;100.00;50247.78;5087421;28;20705;-76
2022/09/20 00:16:50;;;;;;;1.50;1.40;;;;;;;-141.28;100.00;50216.38;5086169;28;20207;-75
2022/09/20 00:19:19;;;;;;;1.60;1.50;;;;;;;-141.28;100.00;50198.72;5084412;28;20199;-75
2022/09/20 00:21:47;;;;;;;1.70;1.60;;;;;;;-141.28;100.00;50232.06;5091549;28;20200;-76
2022/09/20 00:24:14;;;;;;;1.70;1.60;;;;;;;-141.28;100.00;50243.84;5092136;28;20642;-75
2022/09/20 00:26:41;;;;;;;1.83;1.40;;;;;;;-141.28;100.00;50243.84;5097742;28;20199;-77
2022/09/20 00:29:12;;;;;;;1.70;1.60;;;;;;;-141.28;100.00;50212.44;5113151;28;20195;-74
2022/09/20 00:31:41;;;;;;;2.10;1.90;;;;;;;-141.28;100.00;50190.84;5079522;28;20272;-76
2022/09/20 00:36:55;;;;;;;1.37;1.27;;;;;;;-141.28;100.00;50216.38;5092270;28;20231;-76
2022/09/20 00:39:21;;;;;;;1.67;1.50;;;;;;;-141.28;100.00;50186.94;5109508;28;20202;-76
2022/09/20 00:41:48;;;;;;;1.30;1.20;;;;;;;-141.28;100.00;50116.28;5090758;28;20556;-76
2022/09/20 00:44:54;;;;;;;2.97;1.70;;;;;;;-141.28;100.00;50192.81;5080514;28;20199;-75
2022/09/20 00:47:29;;;;;;;1.50;1.40;;;;;;;-141.28;100.00;50261.50;5098189;28;20202;-76
2022/09/20 00:50:03;;;;;;;1.30;1.20;;;;;;;-141.28;100.00;50226.19;5089982;28;20690;-76
2022/09/20 00:52:31;;;;;;;1.50;1.40;;;;;;;-141.28;100.00;50186.94;5085396;28;20235;-74
2022/09/20 00:55:00;;;;;;;2.20;1.40;;;;;;;-141.28;100.00;50126.09;5072009;28;20200;-76
2022/09/20 00:57:33;;;;;;;1.30;1.20;;;;;;;-141.28;100.00;50108.44;5078342;28;20634;-74
2022/09/20 01:00:07;;;;;;;1.30;1.20;;;;;;;-141.28;100.00;50133.94;5092894;28;20287;-75
2022/09/20 01:02:37;;;;;;;1.50;1.40;;;;;;;-141.28;100.00;50065.25;5066142;28;20205;-77
2022/09/20 01:05:09;;;;;;;1.67;1.57;;;;;;;-141.28;100.00;50061.31;5088845;28;20248;-76
2022/09/20 01:07:37;;;;;;;1.60;1.50;;;;;;;-141.28;100.00;50065.25;5092277;28;20223;-76
2022/09/20 01:10:05;;;;;;;1.87;1.50;;;;;;;-141.28;100.00;50086.84;5076142;28;20191;-74
2022/09/20 01:12:34;;;;;;;1.50;1.40;;;;;;;-141.28;100.00;50055.44;5083173;28;20229;-77
2022/09/20 01:15:05;;;;;;;2.50;1.57;;;;;;;-141.28;100.00;50071.13;5080739;28;20191;-75
2022/09/20 01:17:34;;;;;;;1.50;1.40;;;;;;;-141.28;100.00;50084.88;5093155;28;20584;-76
2022/09/20 01:20:11;;;;;;;1.63;1.40;;;;;;;-141.28;100.00;50118.25;5093088;28;20253;-76
2022/09/20 01:22:48;;;;;;;2.00;1.80;;;;;;;-141.28;100.00;50159.44;5091927;28;20226;-76
2022/09/20 01:25:18;;;;;;;1.77;1.40;;;;;;;-141.28;100.00;50171.22;5071507;28;20334;-77
2022/09/20 01:27:49;;;;;;;1.70;1.60;;;;;;;-141.28;100.00;50188.91;5075906;28;20201;-74
2022/09/20 01:30:19;;;;;;;1.83;1.60;;;;;;;-141.28;100.00;50163.38;5111513;28;20261;-73
2022/09/20 01:32:56;;;;;;;2.30;1.73;;;;;;;-141.28;100.00;50216.38;5104344;28;20772;-74
2022/09/20 01:35:27;;;;;;;1.83;1.50;;;;;;;-141.28;100.00;50232.06;5079589;28;20659;-77
2022/09/20 01:38:14;;;;;;;1.80;1.70;;;;;;;-141.28;100.00;50275.25;5071437;28;20279;-75
2022/09/20 01:40:47;;;;;;;1.70;1.60;;;;;;;-141.28;100.00;50314.50;5075756;28;20434;-75
2022/09/20 01:43:25;;;;;;;1.70;1.60;;;;;;;-141.28;100.00;50306.66;5092051;28;20200;-73
2022/09/20 01:45:53;;;;;;;1.63;1.53;;;;;;;-141.28;100.00;50308.63;5083942;28;20655;-76
2022/09/20 01:48:29;;;;;;;1.87;1.77;;;;;;;-141.28;100.00;50298.81;5089059;28;20277;-76
2022/09/20 01:51:19;;;;;;;1.70;1.60;;;;;;;-141.28;100.00;50340.03;5088982;28;20449;-76
2022/09/20 01:54:18;;;;;;;2.30;2.10;;;;;;;-141.28;100.00;50387.13;5075658;28;20279;-78
2022/09/20 01:57:28;;;;;;;1.73;1.63;;;;;;;-141.28;100.00;50487.25;5089369;28;20211;-75
2022/09/20 02:00:09;;;;;;;1.87;1.77;;;;;;;-141.28;100.00;50432.28;5078374;28;20711;-74
2022/09/20 02:03:18;;;;;;;2.00;1.80;;;;;;;-141.28;100.00;50463.69;5083994;28;20214;-75
2022/09/20 02:06:07;;;;;;;2.00;1.90;;;;;;;-141.28;100.00;50432.28;5031024;28;20433;-75
2022/09/20 02:09:09;;;;;;;2.20;2.00;;;;;;;-141.28;100.00;50357.69;5088799;28;20231;-75
2022/09/20 02:11:51;;;;;;;2.47;1.90;;;;;;;-141.28;100.00;50361.63;5075491;28;20232;-75
2022/09/20 02:14:41;;;;;;;1.87;1.77;;;;;;;-141.28;100.00;50298.81;5075052;28;20204;-74
2022/09/20 02:17:15;;;;;;;1.93;1.83;;;;;;;-141.28;100.00;50183.00;5079375;28;20444;-75
2022/09/20 02:19:56;;;;;;;1.97;1.77;;;;;;;-141.28;100.00;50145.72;5107339;28;20245;-77
2022/09/20 02:22:37;;;;;;;2.20;2.00;;;;;;;-141.28;100.00;50084.88;5090513;28;20226;-77
2022/09/20 02:25:16;;;;;;;1.90;1.80;;;;;;;-141.28;100.00;50031.88;5113687;28;20194;-74
2022/09/20 02:27:55;;;;;;;6.13;2.00;;;;;;;-141.28;100.00;50031.88;5102491;28;20644;-76
2022/09/20 02:30:37;;;;;;;2.10;1.90;;;;;;;-141.28;100.00;49980.84;5081187;28;20215;-76
2022/09/20 02:33:34;;;;;;;1.70;1.60;;;;;;;-141.28;100.00;49976.94;5096193;28;20668;-75
2022/09/20 02:36:19;;;;;;;2.00;1.90;;;;;;;-141.28;100.00;49965.16;5109961;28;20247;-73
2022/09/20 02:38:59;;;;;;;2.07;1.77;;;;;;;-141.28;100.00;49945.53;5083508;28;20199;-75
2022/09/20 02:41:59;;;;;;;2.27;1.83;;;;;;;-141.28;100.00;49884.69;5106470;28;20196;-76
2022/09/20 02:44:40;;;;;;;2.03;1.90;;;;;;;-141.28;100.00;49941.59;5098757;28;20200;-76
2022/09/20 02:47:13;;;;;;;2.17;1.97;;;;;;;-141.28;100.00;49878.81;5090042;28;20244;-74
2022/09/20 02:50:00;;;;;;;2.10;2.00;;;;;;;-141.28;100.00;49849.38;5101190;28;20216;-77
2022/09/20 02:52:39;;;;;;;2.60;2.07;;;;;;;-141.28;100.00;49894.50;5094630;28;20223;-76
2022/09/20 02:55:12;;;;;;;3.07;2.30;;;;;;;-141.28;100.00;49847.41;5074122;28;20238;-75
2022/09/20 02:57:48;;;;;;;2.50;2.30;;;;;;;-141.28;100.00;49831.69;5078184;28;20249;-77
2022/09/20 03:00:24;;;;;;;3.03;2.00;;;;;;;-141.28;100.00;49823.84;5094309;28;20196;-75
2022/09/20 03:03:05;;;;;;;2.90;2.20;;;;;;;-141.28;100.00;49839.56;5074936;28;20466;-74
2022/09/20 03:05:42;;;;;;;3.43;2.50;;;;;;;-141.28;100.00;49776.75;5073903;28;20450;-74
2022/09/20 03:08:25;;;;;;;2.10;1.90;;;;;;;-141.28;100.00;49741.44;5079013;28;20466;-75
2022/09/20 03:11:02;;;;;;;2.43;2.07;;;;;;;-141.28;100.00;49713.94;5075451;28;21057;-74
2022/09/20 03:13:49;;;;;;;2.33;2.03;;;;;;;-141.28;100.00;49647.22;5063271;28;20557;-77
2022/09/20 03:16:30;;;;;;;2.90;2.50;;;;;;;-141.28;100.00;49631.53;5083403;28;20458;-74
2022/09/20 03:19:12;;;;;;;2.40;2.20;;;;;;;-141.28;100.00;49623.69;5076141;28;20435;-73
2022/09/20 03:21:55;;;;;;;2.30;2.00;;;;;;;-141.28;100.00;49584.44;5075700;28;20207;-75
2022/09/20 03:24:33;;;;;;;2.53;2.33;;;;;;;-141.28;100.00;49527.53;5074983;28;20450;-76
2022/09/20 03:27:09;;;;;;;2.70;2.50;;;;;;;-141.28;100.00;49482.41;5087640;28;20249;-76
2022/09/20 03:29:54;;;;;;;2.60;2.30;;;;;;;-141.28;100.00;49458.84;5074010;28;20218;-76
2022/09/20 03:32:37;;;;;;;2.37;2.17;;;;;;;-141.28;100.00;49472.59;5084693;28;20286;-75
2022/09/20 03:35:22;;;;;;;2.90;2.40;;;;;;;-141.28;100.00;49470.63;5074453;28;20446;-76
2022/09/20 03:38:09;;;;;;;2.50;2.30;;;;;;;-141.28;100.00;49490.25;5087606;28;20230;-73
2022/09/20 03:41:02;;;;;;;2.70;2.50;;;;;;;-141.28;100.00;49533.41;5083085;28;20845;-75
2022/09/20 03:43:45;;;;;;;3.23;2.30;;;;;;;-141.28;100.00;49498.09;5083686;28;20515;-74
2022/09/20 03:46:18;;;;;;;2.53;2.33;;;;;;;-141.28;100.00;49468.66;5078976;28;20441;-76
2022/09/20 03:49:26;;;;;;;3.00;2.40;;;;;;;-141.28;100.00;49482.41;5091186;28;20617;-76
2022/09/20 03:52:03;;;;;;;2.30;2.10;;;;;;;-141.28;100.00;49517.72;5072545;28;20454;-76
2022/09/20 03:55:04;;;;;;;2.40;2.20;;;;;;;-141.28;100.00;49568.75;5105006;28;20438;-75
2022/09/20 03:57:59;;;;;;;2.40;2.20;;;;;;;-141.28;100.00;49531.44;5090490;28;20573;-76
2022/09/20 04:00:37;;;;;;;2.27;2.07;;;;;;;-141.28;100.00;49533.41;5112358;28;20447;-74
2022/09/20 04:03:28;;;;;;;2.60;2.33;;;;;;;-141.28;100.00;49545.19;5092178;28;20305;-74
2022/09/20 04:06:10;;;;;;;3.23;2.63;;;;;;;-141.28;100.00;49513.78;5110413;28;20667;-76
2022/09/20 04:09:01;;;;;;;2.40;2.17;;;;;;;-141.28;100.00;49521.63;5097294;28;20495;-77
2022/09/20 04:11:41;;;;;;;2.40;2.20;;;;;;;-141.28;100.00;49529.50;5111951;28;20476;-73
2022/09/20 04:14:15;;;;;;;2.83;2.27;;;;;;;-141.28;100.00;49498.09;5097972;28;20508;-77
2022/09/20 04:16:52;;;;;;;2.67;2.17;;;;;;;-141.28;100.00;49480.44;5110307;28;20199;-75
2022/09/20 04:19:26;;;;;;;2.70;2.50;;;;;;;-141.28;100.00;49482.41;5093100;28;20202;-75
2022/09/20 04:21:56;;;;;;;2.47;2.20;;;;;;;-141.28;100.00;49470.63;5110370;28;20437;-78
2022/09/20 04:24:38;;;;;;;3.50;3.17;;;;;;;-141.28;100.00;49451.00;5111622;28;20608;-76
2022/09/20 04:27:18;;;;;;;3.60;2.80;;;;;;;-141.28;100.00;49521.63;5090452;28;20280;-76
2022/09/20 04:29:56;;;;;;;3.70;2.13;;;;;;;-141.28;100.00;49556.97;5104347;28;20440;-75
2022/09/20 04:32:28;;;;;;;6.60;3.17;;;;;;;-141.28;100.00;49541.25;5110197;28;20529;-74
2022/09/20 04:37:48;;;;;;;2.93;2.30;;;;;;;-141.28;100.00;49580.50;5056011;28;20441;-75
2022/09/20 04:40:26;;;;;;;3.40;2.00;;;;;;;-141.28;100.00;49607.97;5090933;28;20438;-75
2022/09/20 04:43:40;;;;;;;4.80;2.40;;;;;;;-141.28;100.00;49694.31;5088281;28;20514;-76
2022/09/20 04:46:50;;;;;;;3.10;2.27;;;;;;;-141.28;100.00;49737.50;5085141;28;20434;-74
2022/09/20 04:49:56;;;;;;;2.43;2.23;;;;;;;-141.28;100.00;49827.78;5073611;28;20962;-76
2022/09/20 04:53:01;;;;;;;2.77;2.33;;;;;;;-141.28;100.00;49890.56;5055872;28;20485;-75
2022/09/20 04:55:51;;;;;;;5.00;2.70;;;;;;;-141.28;100.00;49843.47;5071465;28;20889;-75
2022/09/20 04:58:46;;;;;;;2.57;2.37;;;;;;;-141.28;100.00;49843.47;5081291;28;20449;-74
2022/09/20 05:01:54;;;;;;;2.53;2.33;;;;;;;-141.28;100.00;49861.13;5078347;28;20229;-76
2022/09/20 05:04:56;;;;;;;4.33;2.80;;;;;;;-141.28;100.00;49870.94;5090997;28;20859;-76
2022/09/20 05:08:00;;;;;;;8.60;2.40;;;;;;;-141.28;100.00;49937.69;5066407;28;20273;-75
2022/09/20 05:10:43;;;;;;;2.17;1.97;;;;;;;-141.28;100.00;49910.19;5076229;28;20653;-74
2022/09/20 05:13:20;;;;;;;4.57;2.70;;;;;;;-141.28;100.00;49878.81;5076602;28;20230;-74
2022/09/20 05:15:58;;;;;;;2.60;2.37;;;;;;;-141.28;100.00;49878.81;5074234;28;20212;-75
2022/09/20 05:18:57;;;;;;;2.50;2.30;;;;;;;-141.28;100.00;49927.88;5073489;28;20228;-76
2022/09/20 05:21:37;;;;;;;2.90;2.10;;;;;;;-141.28;100.00;50018.16;5066992;28;20207;-75
2022/09/20 05:24:20;;;;;;;8.43;2.63;;;;;;;-141.28;100.00;50012.25;5072470;28;20196;-74
2022/09/20 05:27:02;;;;;;;3.20;1.93;;;;;;;-141.28;100.00;50010.28;5078376;28;20248;-77
2022/09/20 05:29:39;;;;;;;2.10;1.90;;;;;;;-141.28;100.00;50016.19;5092135;28;20227;-74
2022/09/20 05:32:17;;;;;;;4.07;2.40;;;;;;;-141.28;100.00;50024.03;5072533;28;20275;-76
2022/09/20 05:34:50;;;;;;;2.93;2.20;;;;;;;-141.28;100.00;50020.09;5077178;28;20285;-75
2022/09/20 05:37:30;;;;;;;4.23;2.10;;;;;;;-141.28;100.00;50012.25;5092361;28;20196;-75
2022/09/20 05:40:04;;;;;;;3.23;2.10;;;;;;;-141.28;100.00;50004.41;5089159;28;20192;-76
2022/09/20 05:42:40;;;;;;;2.40;2.13;;;;;;;-141.28;100.00;50098.63;5084815;28;20202;-76
2022/09/20 05:45:22;;;;;;;2.80;2.37;;;;;;;-141.28;100.00;50088.78;5071204;28;20768;-75
2022/09/20 05:47:56;;;;;;;3.30;2.40;;;;;;;-141.28;100.00;50075.06;5097945;28;20196;-75
2022/09/20 05:50:39;;;;;;;3.30;2.17;;;;;;;-141.28;100.00;50190.84;5081661;28;20195;-77
2022/09/20 05:53:45;;;;;;;2.10;1.90;;;;;;;-141.28;100.00;50342.00;5077176;28;20640;-76
2022/09/20 05:56:22;;;;;;;6.40;2.03;;;;;;;-141.28;100.00;50506.88;5049509;28;20192;-78
2022/09/20 05:59:12;;;;;;;3.97;2.20;;;;;;;-141.28;100.00;50597.16;5090017;28;20667;-74
2022/09/20 06:01:42;;;;;;;15.17;2.60;;;;;;;-141.28;100.00;50636.41;5086326;28;20203;-75
2022/09/20 06:04:18;;;;;;;10.20;2.57;;;;;;;-141.28;100.00;50742.41;5081921;28;20649;-77
2022/09/20 06:06:57;;;;;;;4.67;2.37;;;;;;;-141.28;100.00;50905.34;5086603;28;20256;-77
2022/09/20 06:09:45;;;;;;;14.07;3.20;;;;;;;-141.28;100.00;51044.75;5090919;28;20231;-74
2022/09/20 06:12:34;;;;;;;14.53;2.97;;;;;;;-141.28;100.00;51229.28;5081501;28;20249;-75
2022/09/20 06:15:18;;;;;;;14.03;3.03;;;;;;;-141.28;100.00;51368.69;5087926;28;20195;-78
2022/09/20 06:17:57;;;;;;;3.77;1.80;;;;;;;-141.28;100.00;51409.91;5085652;28;20283;-75
2022/09/20 06:20:30;;;;;;;2.97;1.90;;;;;;;-141.28;100.00;51531.66;5070813;28;20212;-76
2022/09/20 06:23:00;;;;;;;3.77;2.00;;;;;;;-141.28;100.00;51321.56;5082645;28;20204;-74
2022/09/20 06:25:32;;;;;;;2.67;1.87;;;;;;;-141.28;100.00;51392.25;5076217;28;20207;-75
2022/09/20 06:28:05;;;;;;;5.23;1.80;;;;;;;-141.28;100.00;51347.09;5105179;28;20199;-75
2022/09/20 06:30:37;;;;;;;3.17;2.03;;;;;;;-141.28;100.00;51327.44;5081048;28;20192;-75
2022/09/20 06:33:15;;;;;;;2.70;2.07;;;;;;;-141.28;100.00;51296.03;5103152;28;20280;-76
2022/09/20 06:35:47;;;;;;;2.20;1.80;;;;;;;-141.28;100.00;51158.59;5100554;28;20223;-75
2022/09/20 06:41:28;;;;;;;4.70;2.10;;;;;;;-141.28;100.00;51158.59;5062251;28;20734;-75
2022/09/20 06:43:57;;;;;;;2.10;1.90;;;;;;;-141.28;100.00;51154.69;5075707;28;20214;-76
2022/09/20 06:46:27;;;;;;;6.40;1.90;;;;;;;-141.28;100.00;51080.06;5111185;28;20203;-74
2022/09/20 06:48:56;;;;;;;10.57;2.07;;;;;;;-141.28;100.00;50981.91;5113607;28;20215;-74
2022/09/20 06:51:27;;;;;;;4.60;1.83;;;;;;;-141.28;100.00;50873.94;5113278;28;20264;-77
2022/09/20 06:53:57;;;;;;;9.60;2.00;;;;;;;-141.28;100.00;50754.19;5087670;28;20223;-74
2022/09/20 06:56:25;;;;;;;3.80;1.73;;;;;;;-141.28;100.00;50640.34;5080253;28;20278;-74
2022/09/20 06:58:54;;;;;;;6.73;1.80;;;;;;;-141.28;100.00;50440.13;5080608;28;20291;-76
2022/09/20 07:01:22;;;;;;;9.40;1.87;;;;;;;-141.28;100.00;50326.28;5093607;28;20199;-76
2022/09/20 07:03:49;;;;;;;2.27;1.57;;;;;;;-141.28;100.00;50271.31;5079639;28;20200;-74
2022/09/20 07:06:18;;;;;;;2.80;1.80;;;;;;;-141.28;100.00;50236.00;5073814;28;20295;-77
2022/09/20 07:08:47;;;;;;;16.30;2.30;;;;;;;-141.28;100.00;50212.44;5075572;28;20259;-74
2022/09/20 07:11:17;;;;;;;4.47;2.17;;;;;;;-141.28;100.00;50184.97;5093716;28;20192;-77
2022/09/20 07:13:45;;;;;;;6.13;1.83;;;;;;;-141.28;100.00;50000.47;5093455;28;20220;-76
2022/09/20 07:16:13;;;;;;;3.50;1.90;;;;;;;-141.28;100.00;49955.34;5083490;28;20188;-76
2022/09/20 07:18:41;;;;;;;3.80;1.63;;;;;;;-141.28;100.00;49984.78;5090826;28;20206;-75
2022/09/20 07:21:11;;;;;;;2.60;1.63;;;;;;;-141.28;100.00;49921.97;5085827;28;20640;-75
2022/09/20 07:23:39;;;;;;;11.23;1.90;;;;;;;-141.28;100.00;49835.63;5056734;28;20284;-75
2022/09/20 07:26:18;;;;;;;34.17;3.00;;;;;;;-141.28;100.00;49902.34;5073806;28;20196;-75
2022/09/20 07:28:46;;;;;;;5.23;1.47;;;;;;;-141.28;100.00;50391.06;5080564;28;20275;-74
2022/09/20 07:31:14;;;;;;;9.93;1.83;;;;;;;-141.28;100.00;50393.03;5093223;28;20661;-75
2022/09/20 07:33:41;;;;;;;14.73;3.33;;;;;;;-141.28;100.00;50389.09;5086192;28;20235;-77
2022/09/20 07:36:11;;;;;;;4.03;1.60;;;;;;;-141.28;100.00;50393.03;5086459;28;20204;-76
2022/09/20 07:38:38;;;;;;;1.40;1.30;;;;;;;-141.28;100.00;50393.03;5105758;28;20187;-75
2022/09/20 07:41:07;;;;;;;4.27;1.40;;;;;;;-141.28;100.00;50398.91;5092400;28;20638;-74
2022/09/20 07:43:35;;;;;;;5.23;1.50;;;;;;;-141.28;100.00;50428.34;5092910;28;20505;-75
2022/09/20 07:46:03;;;;;;;4.93;1.50;;;;;;;-141.28;100.00;50389.09;5092254;28;20208;-77
2022/09/20 07:48:33;;;;;;;4.70;1.80;;;;;;;-141.28;100.00;50389.09;5084058;28;20212;-76
2022/09/20 07:51:03;;;;;;;7.07;1.50;;;;;;;-141.28;100.00;50363.56;5076101;28;20223;-77
2022/09/20 07:53:30;;;;;;;1.60;1.30;;;;;;;-141.28;100.00;50412.66;5064874;28;20227;-75
2022/09/20 07:55:59;;;;;;;1.53;1.40;;;;;;;-141.28;100.00;50393.03;5089140;28;20258;-75
2022/09/20 07:58:28;;;;;;;1.40;1.30;;;;;;;-141.28;100.00;50361.63;5092698;28;20230;-75
2022/09/20 08:00:56;;;;;;;3.57;1.30;;;;;;;-141.28;100.00;50345.91;5093142;28;20674;-75
2022/09/20 08:03:23;;;;;;;5.90;1.90;;;;;;;-141.28;100.00;50302.72;5092929;28;20204;-76
2022/09/20 08:05:51;;;;;;;2.00;1.33;;;;;;;-141.28;100.00;50290.97;5089422;28;20199;-76
2022/09/20 08:08:19;;;;;;;3.33;1.63;;;;;;;-141.28;100.00;50255.63;5072721;28;20240;-76
2022/09/20 08:10:47;;;;;;;2.33;1.67;;;;;;;-141.28;100.00;50224.22;5074724;28;20196;-75
2022/09/20 08:13:16;;;;;;;2.30;1.87;;;;;;;-141.28;100.00;50124.13;5073081;28;20203;-76
2022/09/20 08:15:45;;;;;;;2.40;1.20;;;;;;;-141.28;100.00;49953.38;5073950;28;20215;-75
2022/09/20 08:18:15;;;;;;;3.87;1.50;;;;;;;-141.28;100.00;49914.13;5073295;28;20204;-76
2022/09/20 08:20:46;;;;;;;2.60;1.53;;;;;;;-141.28;100.00;49831.69;5085629;28;20589;-75
2022/09/20 08:23:14;;;;;;;3.00;1.20;;;;;;;-141.28;100.00;49733.56;5074769;28;20200;-74
2022/09/20 08:25:41;;;;;;;5.50;1.40;;;;;;;-141.28;100.00;49635.47;5054672;28;20204;-76
2022/09/20 08:28:10;;;;;;;1.80;1.40;;;;;;;-141.28;100.00;49588.34;5075233;28;20204;-75
2022/09/20 08:30:39;;;;;;;1.87;1.50;;;;;;;-141.28;100.00;49584.44;5092485;28;20196;-74
2022/09/20 08:33:13;;;;;;;4.73;1.40;;;;;;;-141.28;100.00;49584.44;5093671;28;20203;-76
2022/09/20 08:35:40;;;;;;;3.80;1.10;;;;;;;-141.28;100.00;49505.94;5092808;28;20684;-75
2022/09/20 08:38:10;;;;;;;1.43;1.20;;;;;;;-141.28;100.00;49403.91;5090139;28;20245;-76
2022/09/20 08:40:37;;;;;;;3.23;1.20;;;;;;;-141.28;100.00;49411.75;5073096;28;20235;-74
2022/09/20 08:43:08;;;;;;;2.10;1.00;;;;;;;-141.28;100.00;49380.34;5086849;28;20200;-75
2022/09/20 08:45:38;;;;;;;6.10;1.20;;;;;;;-141.28;100.00;49376.44;5071924;28;20232;-74
2022/09/20 08:48:13;;;;;;;1.63;0.97;;;;;;;-141.28;100.00;49376.44;5109030;28;20230;-74
2022/09/20 08:50:41;;;;;;;4.37;1.50;;;;;;;-141.28;100.00;49352.88;5079605;28;20298;-75
2022/09/20 08:53:14;;;;;;;1.00;1.00;;;;;;;-141.28;100.00;49337.19;5078067;28;20195;-77
2022/09/20 08:55:42;;;;;;;2.13;1.30;;;;;;;-141.28;100.00;49329.34;5091039;28;20207;-76
2022/09/20 08:58:13;;;;;;;2.90;1.37;;;;;;;-141.28;100.00;49288.13;5091222;28;20195;-75
2022/09/20 09:00:44;;;;;;;1.10;1.00;;;;;;;-141.28;100.00;49311.69;5102001;28;20298;-74
2022/09/20 09:03:16;;;;;;;3.37;1.33;;;;;;;-141.28;100.00;49380.34;5070941;28;20192;-76
2022/09/20 09:05:45;;;;;;;1.10;1.10;;;;;;;-141.28;100.00;49368.59;5066686;28;20208;-76
2022/09/20 09:08:15;;;;;;;3.67;1.77;;;;;;;-141.28;100.00;49368.59;5071235;28;20228;-75
2022/09/20 09:10:43;;;;;;;10.23;1.53;;;;;;;-141.28;100.00;49399.97;5093812;28;20227;-74
2022/09/20 09:13:20;;;;;;;2.33;1.50;;;;;;;-141.28;100.00;49413.72;5111420;28;20195;-74
2022/09/20 09:15:54;;;;;;;3.93;1.10;;;;;;;-141.28;100.00;49399.97;5084481;28;20651;-76
2022/09/20 09:18:35;;;;;;;4.90;1.17;;;;;;;-141.28;100.00;49399.97;5096427;28;20206;-76
2022/09/20 09:21:04;;;;;;;3.80;1.50;;;;;;;-141.28;100.00;49423.53;5110853;28;20209;-75
2022/09/20 09:23:40;;;;;;;0.80;0.80;;;;;;;-141.28;100.00;49392.13;5094657;28;20234;-75
2022/09/20 09:26:15;;;;;;;1.30;1.00;;;;;;;-141.28;100.00;49347.00;5092564;28;20633;-76
2022/09/20 09:28:43;;;;;;;1.00;1.00;;;;;;;-141.28;100.00;49356.81;5097095;28;20202;-74
2022/09/20 09:31:24;;;;;;;3.00;1.20;;;;;;;-141.28;100.00;49309.72;5111473;28;20198;-74
2022/09/20 09:33:53;;;;;;;3.20;1.10;;;;;;;-141.28;100.00;49301.88;5072032;28;20223;-74
2022/09/20 09:36:24;;;;;;;2.47;1.20;;;;;;;-141.28;100.00;49282.25;5099229;28;20195;-75
2022/09/20 09:38:52;;;;;;;2.17;1.50;;;;;;;-141.28;100.00;49274.41;5100174;28;20277;-77
2022/09/20 09:41:25;;;;;;;1.20;1.10;;;;;;;-141.28;100.00;49254.78;5078504;28;20233;-77
2022/09/20 09:44:05;;;;;;;1.10;1.10;;;;;;;-141.28;100.00;49231.22;5070892;28;20270;-78
2022/09/20 09:46:34;;;;;;;3.07;1.20;;;;;;;-141.28;100.00;49215.53;5095405;28;20210;-75
2022/09/20 09:49:08;;;;;;;1.43;1.17;;;;;;;-141.28;100.00;49243.00;5111169;28;20214;-74
2022/09/20 09:51:38;;;;;;;4.60;1.27;;;;;;;-141.28;100.00;49258.69;5078328;28;20202;-76
2022/09/20 09:54:07;;;;;;;0.70;0.70;;;;;;;-141.28;100.00;49313.66;5075784;28;20220;-76
2022/09/20 09:56:47;;;;;;;0.70;0.70;;;;;;;-141.28;100.00;49321.50;5078954;28;20231;-76
2022/09/20 09:59:40;;;;;;;0.60;0.60;;;;;;;-141.28;100.00;49343.06;5073546;28;20196;-77
2022/09/20 10:02:23;;;;;;;0.70;0.70;;;;;;;-141.28;100.00;49368.59;5072796;28;20196;-76
2022/09/20 10:04:59;;;;;;;1.10;0.90;;;;;;;-141.28;100.00;49366.63;5074677;28;20283;-76
2022/09/20 10:07:34;;;;;;;1.87;1.33;;;;;;;-141.28;100.00;49364.66;5083775;28;20673;-76
2022/09/20 10:10:12;;;;;;;7.83;1.93;;;;;;;-141.28;100.00;49345.03;5089178;28;20204;-75
2022/09/20 10:12:56;;;;;;;3.73;1.40;;;;;;;-141.28;100.00;49341.13;5075857;28;20200;-74
2022/09/20 10:15:41;;;;;;;1.43;1.33;;;;;;;-141.28;100.00;49341.13;5076435;28;20314;-76
2022/09/20 10:18:31;;;;;;;4.27;1.23;;;;;;;-141.28;100.00;49364.66;5079559;28;20204;-75
2022/09/20 10:21:24;;;;;;;1.30;1.17;;;;;;;-141.28;100.00;49376.44;5079358;28;20250;-77
2022/09/20 10:24:09;;;;;;;1.50;1.00;;;;;;;-141.28;100.00;49384.28;5081294;28;20227;-74
2022/09/20 10:27:02;;;;;;;0.90;0.87;;;;;;;-141.28;100.00;49364.66;5094680;28;20289;-76
2022/09/20 10:29:51;;;;;;;10.83;1.40;;;;;;;-141.28;100.00;49333.25;5094454;28;20204;-76
2022/09/20 10:32:33;;;;;;;1.47;0.90;;;;;;;-141.28;100.00;49386.25;5094561;28;20203;-74
2022/09/20 10:35:14;;;;;;;1.40;1.17;;;;;;;-141.28;100.00;49376.44;5106919;28;20256;-76
2022/09/20 10:37:55;;;;;;;1.10;1.00;;;;;;;-141.28;100.00;49360.75;5094154;28;20252;-75
2022/09/20 10:43:34;;;;;;;2.73;1.10;;;;;;;-141.28;100.00;49374.47;5090592;28;20253;-75
2022/09/20 10:46:13;;;;;;;1.40;1.03;;;;;;;-141.28;100.00;49317.56;5082472;28;20638;-76
2022/09/20 10:48:47;;;;;;;2.47;1.20;;;;;;;-141.28;100.00;49294.03;5074354;28;20238;-76
2022/09/20 10:51:25;;;;;;;1.80;1.10;;;;;;;-141.28;100.00;49276.38;5074030;28;20227;-78
2022/09/20 10:54:03;;;;;;;0.70;0.70;;;;;;;-141.28;94.44;49286.16;5083549;28;20646;-76
2022/09/20 10:56:36;;;;;;;3.90;1.00;;;;;;;-141.28;91.79;49335.22;5089797;28;20618;-76
2022/09/20 10:59:41;;;;;;;1.27;1.00;;;;;;;-141.28;100.00;49356.81;5086153;28;20274;-77
2022/09/20 11:02:30;;;;;;;1.97;1.10;;;;;;;-141.28;100.00;49348.97;5094040;28;20191;-75
2022/09/20 11:05:15;;;;;;;7.30;1.03;;;;;;;-141.28;100.00;49280.28;5074075;28;20207;-75
2022/09/20 11:07:54;;;;;;;1.63;0.97;;;;;;;-141.28;100.00;49333.25;5091161;28;20220;-74
2022/09/20 11:10:28;;;;;;;0.90;0.90;;;;;;;-141.28;100.00;49282.25;5082876;28;20655;-75
2022/09/20 11:13:01;;;;;;;6.77;1.40;;;;;;;-141.28;94.83;49221.41;5080716;28;20206;-76
2022/09/20 11:15:34;;;;;;;2.17;1.13;;;;;;;-141.28;80.25;49239.09;5096101;28;20234;-74
2022/09/20 11:18:10;;;;;;;1.43;0.93;;;;;;;-141.28;78.74;49207.69;5094126;28;20260;-77
2022/09/20 11:20:44;;;;;;;1.33;1.00;;;;;;;-141.28;72.24;49237.13;5063358;28;20202;-76
2022/09/20 11:23:17;;;;;;;2.77;1.30;;;;;;;-141.28;71.71;49235.16;5083453;28;20250;-76
2022/09/20 11:25:54;;;;;;;1.27;1.10;;;;;;;-141.28;69.10;49227.31;5080470;28;20203;-74
2022/09/20 11:28:27;;;;;;;1.00;1.00;;;;;;;-141.28;73.67;49278.31;5078639;28;20689;-76
2022/09/20 11:31:02;;;;;;;1.73;1.00;;;;;;;-141.28;75.32;49223.38;5064233;28;20210;-74
2022/09/20 11:33:33;;;;;;;1.40;1.30;;;;;;;-141.28;74.27;49297.94;5092863;28;20248;-76
2022/09/20 11:36:04;;;;;;;2.10;1.20;;;;;;;-141.28;76.16;49252.81;5093178;28;20223;-75
2022/09/20 11:38:37;;;;;;;1.53;1.10;;;;;;;-141.28;75.16;49235.16;5079231;28;20204;-75
2022/09/20 11:41:15;;;;;;;0.93;0.93;;;;;;;-141.28;75.02;49266.56;5083530;28;20200;-76
2022/09/20 11:43:44;;;;;;;3.80;1.00;;;;;;;-141.28;67.89;49231.22;5102393;28;20668;-76
2022/09/20 11:46:18;;;;;;;1.10;1.00;;;;;;;-141.28;69.46;49211.59;5112711;28;20249;-75
2022/09/20 11:48:50;;;;;;;2.40;1.20;;;;;;;-141.28;68.43;49172.38;5090763;28;20220;-75
2022/09/20 11:51:41;;;;;;;13.43;1.83;;;;;;;-141.28;71.95;49227.31;5083206;28;20626;-74
2022/09/20 11:54:24;;;;;;;1.17;1.07;;;;;;;-141.28;71.21;49254.78;5082253;28;20208;-75
2022/09/20 11:56:56;;;;;;;1.13;1.00;;;;;;;-141.28;67.73;49246.94;5073030;28;20203;-76
2022/09/20 11:59:30;;;;;;;1.73;1.00;;;;;;;-141.28;67.42;49231.22;5059621;28;20575;-74
2022/09/20 12:02:00;;;;;;;1.40;1.07;;;;;;;-141.28;65.60;49113.50;5097702;28;20210;-75
2022/09/20 12:04:30;;;;;;;0.83;0.83;;;;;;;-141.28;67.64;49227.31;5076880;28;20199;-76
2022/09/20 12:07:02;;;;;;;6.80;1.30;;;;;;;-141.28;66.63;49160.59;5072508;28;20223;-77